createdAt,value
2022-10-06T00:00:35.460Z,15.68
2022-10-06T00:03:02.640Z,15.24
2022-10-06T00:05:29.655Z,15.23
2022-10-06T00:07:56.185Z,15.45
2022-10-06T00:10:23.135Z,15.27
2022-10-06T00:12:51.617Z,15.34
2022-10-06T00:15:27.077Z,15.30
2022-10-06T00:17:53.711Z,15.25
2022-10-06T00:20:21.211Z,15.32
2022-10-06T00:22:50.136Z,15.07
2022-10-06T00:25:22.338Z,14.75
2022-10-06T00:27:51.071Z,14.70
2022-10-06T00:30:20.726Z,14.59
2022-10-06T00:32:59.040Z,14.63
2022-10-06T00:35:26.935Z,14.71
2022-10-06T00:37:53.856Z,15.01
2022-10-06T00:40:21.385Z,15.09
2022-10-06T00:42:56.846Z,15.14
2022-10-06T00:45:43.084Z,15.30
2022-10-06T00:48:39.040Z,15.38
2022-10-06T00:51:05.945Z,15.26
2022-10-06T00:53:33.018Z,15.40
2022-10-06T00:56:00.079Z,15.25
2022-10-06T00:58:27.085Z,15.41
2022-10-06T01:00:55.138Z,15.04
2022-10-06T01:03:27.259Z,14.95
2022-10-06T01:05:55.514Z,15.21
2022-10-06T01:08:22.962Z,15.11
2022-10-06T01:10:49.611Z,14.81
2022-10-06T01:13:17.598Z,14.97
2022-10-06T01:16:30.336Z,14.91
2022-10-06T01:18:56.985Z,14.60
2022-10-06T01:21:51.221Z,14.29
2022-10-06T01:24:18.760Z,14.35
2022-10-06T01:26:50.090Z,14.48
2022-10-06T01:29:17.373Z,14.50
2022-10-06T01:31:44.068Z,14.61
2022-10-06T01:34:10.878Z,14.46
2022-10-06T01:36:40.363Z,14.43
2022-10-06T01:39:06.930Z,14.71
2022-10-06T01:41:34.414Z,14.71
2022-10-06T01:44:01.084Z,14.65
2022-10-06T01:46:30.048Z,14.80
2022-10-06T01:48:56.913Z,14.53
2022-10-06T01:51:23.460Z,14.30
2022-10-06T01:53:50.078Z,14.43
2022-10-06T01:56:16.612Z,14.17
2022-10-06T01:58:43.294Z,14.52
2022-10-06T02:01:10.449Z,14.49
2022-10-06T02:03:39.256Z,14.71
2022-10-06T02:06:06.584Z,14.09
2022-10-06T02:08:33.871Z,13.77
2022-10-06T02:11:09.375Z,13.68
2022-10-06T02:13:36.704Z,14.06
2022-10-06T02:16:03.998Z,14.31
2022-10-06T02:18:30.910Z,14.47
2022-10-06T02:20:57.836Z,14.50
2022-10-06T02:23:24.315Z,14.57
2022-10-06T02:25:58.965Z,14.41
2022-10-06T02:28:26.631Z,14.39
2022-10-06T02:30:53.523Z,14.53
2022-10-06T02:33:20.096Z,14.76
2022-10-06T02:35:47.206Z,14.96
2022-10-06T02:38:13.745Z,14.98
2022-10-06T02:40:40.270Z,14.94
2022-10-06T02:43:06.853Z,14.92
2022-10-06T02:45:33.382Z,14.76
2022-10-06T02:47:59.898Z,14.66
2022-10-06T02:50:26.436Z,14.54
2022-10-06T02:52:52.922Z,14.64
2022-10-06T02:55:19.442Z,14.77
2022-10-06T02:57:46.107Z,14.55
2022-10-06T03:00:13.188Z,14.48
2022-10-06T03:02:39.954Z,14.70
2022-10-06T03:05:06.936Z,14.71
2022-10-06T03:07:33.454Z,14.83
2022-10-06T03:10:00.087Z,15.10
2022-10-06T03:12:26.841Z,14.81
2022-10-06T03:14:53.355Z,14.74
2022-10-06T03:17:19.933Z,14.90
2022-10-06T03:19:46.416Z,14.81
2022-10-06T03:22:12.925Z,14.73
2022-10-06T03:24:39.457Z,14.81
2022-10-06T03:27:05.954Z,15.13
2022-10-06T03:29:32.492Z,15.28
2022-10-06T03:31:59.128Z,15.42
2022-10-06T03:34:25.837Z,15.52
2022-10-06T03:36:52.355Z,15.33
2022-10-06T03:39:19.002Z,15.30
2022-10-06T03:41:45.676Z,15.35
2022-10-06T03:44:12.167Z,15.10
2022-10-06T03:46:38.850Z,15.19
2022-10-06T03:49:05.538Z,15.26
2022-10-06T03:51:37.841Z,15.34
2022-10-06T03:54:05.309Z,15.36
2022-10-06T03:56:37.988Z,15.40
2022-10-06T03:59:10.347Z,15.49
2022-10-06T04:01:38.406Z,15.41
2022-10-06T04:04:06.063Z,15.52
2022-10-06T04:06:35.515Z,15.63
2022-10-06T04:09:03.043Z,15.44
2022-10-06T04:11:32.623Z,15.32
2022-10-06T04:14:04.748Z,15.54
2022-10-06T04:16:34.217Z,15.64
2022-10-06T04:19:03.869Z,15.61
2022-10-06T04:21:32.336Z,15.76
2022-10-06T04:24:00.061Z,15.62
2022-10-06T04:26:30.731Z,15.56
2022-10-06T04:28:57.774Z,15.40
2022-10-06T04:31:31.019Z,15.45
2022-10-06T04:33:59.807Z,15.30
2022-10-06T04:36:28.435Z,15.24
2022-10-06T04:38:58.898Z,15.45
2022-10-06T04:41:36.964Z,15.22
2022-10-06T04:44:04.659Z,15.36
2022-10-06T04:46:47.919Z,15.37
2022-10-06T04:49:19.490Z,15.38
2022-10-06T04:51:48.342Z,15.44
2022-10-06T04:54:14.867Z,15.54
2022-10-06T04:56:41.448Z,15.70
2022-10-06T04:59:08.081Z,15.68
2022-10-06T05:01:39.260Z,15.62
2022-10-06T05:04:06.444Z,15.69
2022-10-06T05:06:38.712Z,15.77
2022-10-06T05:09:10.940Z,15.54
2022-10-06T05:11:38.160Z,15.60
2022-10-06T05:14:05.698Z,15.59
2022-10-06T05:16:32.462Z,15.61
2022-10-06T05:18:59.256Z,15.78
2022-10-06T05:21:28.674Z,15.76
2022-10-06T05:23:55.371Z,15.72
2022-10-06T05:26:24.121Z,15.92
2022-10-06T05:28:51.127Z,15.72
2022-10-06T05:31:21.032Z,15.60
2022-10-06T05:33:48.060Z,15.61
2022-10-06T05:36:19.671Z,15.68
2022-10-06T05:38:47.223Z,15.39
2022-10-06T05:41:15.078Z,15.31
2022-10-06T05:43:42.406Z,15.44
2022-10-06T05:46:17.554Z,15.31
2022-10-06T05:48:49.251Z,15.22
2022-10-06T05:51:17.165Z,15.21
2022-10-06T05:53:44.511Z,15.26
2022-10-06T05:56:19.448Z,15.39
2022-10-06T05:58:48.511Z,15.50
2022-10-06T06:01:21.642Z,15.71
2022-10-06T06:03:50.882Z,15.57
2022-10-06T06:06:18.801Z,15.59
2022-10-06T06:08:46.245Z,15.40
2022-10-06T06:11:12.959Z,15.25
2022-10-06T06:13:39.604Z,15.21
2022-10-06T06:16:08.071Z,15.24
2022-10-06T06:18:37.036Z,15.16
2022-10-06T06:21:06.638Z,15.55
2022-10-06T06:23:36.348Z,15.36
2022-10-06T06:26:11.381Z,15.26
2022-10-06T06:28:38.456Z,15.36
2022-10-06T06:31:19.695Z,15.25
2022-10-06T06:33:47.644Z,15.32
2022-10-06T06:36:20.256Z,15.69
2022-10-06T06:38:51.988Z,16.01
2022-10-06T06:41:19.993Z,16.11
2022-10-06T06:43:46.741Z,16.09
2022-10-06T06:46:15.220Z,15.87
2022-10-06T06:48:42.173Z,16.04
2022-10-06T06:51:11.545Z,16.02
2022-10-06T06:53:39.371Z,16.27
2022-10-06T06:56:08.324Z,16.40
2022-10-06T06:58:37.997Z,16.44
2022-10-06T07:01:14.177Z,16.33
2022-10-06T07:03:57.123Z,16.42
2022-10-06T07:06:28.180Z,16.63
2022-10-06T07:08:56.011Z,16.48
2022-10-06T07:11:29.432Z,16.44
2022-10-06T07:14:01.459Z,16.51
2022-10-06T07:16:48.106Z,16.68
2022-10-06T07:19:35.074Z,16.75
2022-10-06T07:22:26.395Z,16.31
2022-10-06T07:25:07.709Z,16.08
2022-10-06T07:27:56.471Z,16.39
2022-10-06T07:30:28.196Z,16.73
2022-10-06T07:32:55.237Z,16.71
2022-10-06T07:35:22.954Z,16.62
2022-10-06T07:37:53.383Z,16.85
2022-10-06T07:40:20.219Z,16.75
2022-10-06T07:42:52.001Z,17.00
2022-10-06T07:45:45.086Z,17.27
2022-10-06T07:48:14.632Z,17.52
2022-10-06T07:50:44.354Z,17.52
2022-10-06T07:53:11.388Z,17.70
2022-10-06T07:55:40.065Z,17.70
2022-10-06T07:58:13.994Z,17.77
2022-10-06T08:00:41.694Z,17.83
2022-10-06T08:03:09.111Z,17.82
2022-10-06T08:05:36.346Z,17.90
2022-10-06T08:08:02.850Z,18.15
2022-10-06T08:10:29.288Z,18.04
2022-10-06T08:12:55.884Z,18.17
2022-10-06T08:15:22.413Z,18.22
2022-10-06T08:17:48.949Z,18.21
2022-10-06T08:20:17.256Z,18.30
2022-10-06T08:22:44.006Z,18.34
2022-10-06T08:25:11.079Z,18.19
2022-10-06T08:27:38.346Z,18.27
2022-10-06T08:30:07.214Z,18.05
2022-10-06T08:32:34.229Z,18.09
2022-10-06T08:35:00.996Z,18.14
2022-10-06T08:37:27.807Z,18.31
2022-10-06T08:39:54.999Z,18.31
2022-10-06T08:42:42.570Z,18.37
2022-10-06T08:45:21.516Z,18.44
2022-10-06T08:47:52.619Z,18.73
2022-10-06T08:50:21.357Z,18.72
2022-10-06T08:53:05.996Z,18.96
2022-10-06T08:55:57.782Z,18.80
2022-10-06T08:58:36.908Z,18.83
2022-10-06T09:01:19.943Z,18.68
2022-10-06T09:03:48.927Z,18.70
2022-10-06T09:06:45.361Z,18.95
2022-10-06T09:09:30.928Z,18.93
2022-10-06T09:12:14.827Z,18.78
2022-10-06T09:14:54.476Z,18.63
2022-10-06T09:17:27.583Z,18.69
2022-10-06T09:20:01.534Z,18.79
2022-10-06T09:22:31.736Z,18.84
2022-10-06T09:25:14.848Z,18.63
2022-10-06T09:27:41.568Z,18.96
2022-10-06T09:30:12.403Z,19.22
2022-10-06T09:32:45.067Z,19.04
2022-10-06T09:35:19.378Z,19.02
2022-10-06T09:37:57.160Z,19.02
2022-10-06T09:40:48.723Z,19.15
2022-10-06T09:43:25.794Z,19.09
2022-10-06T09:45:54.774Z,19.14
2022-10-06T09:48:25.122Z,18.98
2022-10-06T09:51:10.450Z,19.02
2022-10-06T09:53:39.514Z,18.97
2022-10-06T09:56:20.303Z,19.22
2022-10-06T09:58:59.033Z,19.18
2022-10-06T10:01:28.743Z,19.20
2022-10-06T10:04:19.594Z,19.21
2022-10-06T10:06:47.943Z,19.06
2022-10-06T10:09:22.123Z,19.04
2022-10-06T10:12:26.740Z,19.24
2022-10-06T10:15:19.201Z,19.26
2022-10-06T10:18:04.453Z,19.35
2022-10-06T10:20:34.447Z,19.26
2022-10-06T10:23:28.629Z,19.41
2022-10-06T10:26:04.519Z,19.47
2022-10-06T10:28:52.311Z,19.60
2022-10-06T10:31:24.126Z,19.59
2022-10-06T10:34:20.226Z,19.61
2022-10-06T10:37:14.077Z,19.75
2022-10-06T10:40:02.159Z,19.95
2022-10-06T10:42:37.285Z,19.78
2022-10-06T10:45:11.180Z,19.50
2022-10-06T10:47:39.526Z,19.62
2022-10-06T10:50:34.031Z,19.84
2022-10-06T10:53:42.937Z,19.74
2022-10-06T10:56:12.131Z,19.82
2022-10-06T10:58:47.684Z,19.65
2022-10-06T11:01:14.237Z,19.72
2022-10-06T11:03:41.170Z,20.01
2022-10-06T11:06:14.598Z,20.21
2022-10-06T11:08:49.603Z,20.37
2022-10-06T11:12:00.942Z,20.51
2022-10-06T11:14:50.572Z,20.63
2022-10-06T11:17:45.307Z,20.36
2022-10-06T11:20:30.574Z,20.30
2022-10-06T11:23:11.922Z,20.16
2022-10-06T11:26:03.900Z,20.20
2022-10-06T11:28:49.824Z,20.21
2022-10-06T11:31:33.430Z,20.52
2022-10-06T11:34:04.456Z,20.40
2022-10-06T11:36:47.206Z,20.37
2022-10-06T11:39:51.222Z,20.21
2022-10-06T11:42:50.127Z,20.10
2022-10-06T11:45:22.063Z,20.40
2022-10-06T11:48:01.837Z,20.43
2022-10-06T11:50:40.290Z,20.30
2022-10-06T11:53:26.312Z,20.50
2022-10-06T11:56:17.912Z,20.37
2022-10-06T11:58:50.689Z,20.49
2022-10-06T12:01:36.363Z,20.81
2022-10-06T12:04:09.034Z,20.71
2022-10-06T12:06:47.543Z,20.36
2022-10-06T12:09:26.273Z,20.73
2022-10-06T12:12:03.372Z,20.66
2022-10-06T12:17:30.684Z,20.34
2022-10-06T12:20:34.918Z,20.54
2022-10-06T12:23:17.167Z,21.06
2022-10-06T12:25:58.839Z,20.99
2022-10-06T12:28:47.379Z,20.99
2022-10-06T12:31:51.268Z,20.81
2022-10-06T12:34:39.720Z,20.98
2022-10-06T12:37:43.507Z,20.89
2022-10-06T12:40:40.991Z,21.24
2022-10-06T12:43:20.549Z,21.05
2022-10-06T12:45:48.668Z,20.96
2022-10-06T12:48:23.153Z,21.45
2022-10-06T12:50:54.781Z,21.38
2022-10-06T12:53:28.337Z,21.14
2022-10-06T12:56:02.152Z,21.28
2022-10-06T12:58:32.613Z,21.25
2022-10-06T13:01:00.160Z,21.51
2022-10-06T13:03:27.357Z,21.62
2022-10-06T13:06:01.166Z,21.72
2022-10-06T13:08:30.453Z,21.78
2022-10-06T13:11:15.618Z,22.05
2022-10-06T13:14:06.877Z,21.91
2022-10-06T13:16:39.595Z,21.53
2022-10-06T13:19:15.409Z,21.35
2022-10-06T13:21:42.023Z,21.24
2022-10-06T13:24:12.979Z,21.31
2022-10-06T13:26:40.806Z,21.55
2022-10-06T13:29:22.299Z,21.60
2022-10-06T13:31:55.952Z,21.50
2022-10-06T13:34:42.039Z,21.60
2022-10-06T13:37:14.444Z,21.59
2022-10-06T13:39:41.101Z,21.89
2022-10-06T13:42:17.796Z,21.85
2022-10-06T13:44:44.352Z,21.65
2022-10-06T13:47:22.640Z,21.52
2022-10-06T13:50:06.391Z,21.53
2022-10-06T13:52:39.192Z,21.63
2022-10-06T13:55:19.075Z,21.87
2022-10-06T13:57:50.763Z,21.62
2022-10-06T14:00:20.832Z,21.88
2022-10-06T14:02:50.796Z,21.58
2022-10-06T14:05:38.176Z,21.75
2022-10-06T14:08:10.451Z,21.72
2022-10-06T14:10:55.819Z,21.90
2022-10-06T14:13:51.188Z,21.59
2022-10-06T14:16:25.100Z,21.80
2022-10-06T14:19:30.076Z,21.97
2022-10-06T14:21:56.774Z,21.86
2022-10-06T14:24:26.949Z,21.59
2022-10-06T14:26:55.004Z,21.72
2022-10-06T14:29:22.396Z,21.66
2022-10-06T14:31:49.371Z,21.75
2022-10-06T14:34:18.359Z,21.66
2022-10-06T14:36:47.771Z,21.57
2022-10-06T14:39:15.665Z,21.97
2022-10-06T14:41:42.568Z,21.74
2022-10-06T14:44:11.621Z,21.72
2022-10-06T14:46:39.611Z,21.59
2022-10-06T14:49:07.661Z,21.74
2022-10-06T14:51:37.108Z,21.84
2022-10-06T14:54:05.182Z,21.74
2022-10-06T14:56:33.610Z,21.55
2022-10-06T14:59:05.619Z,21.72
2022-10-06T15:01:37.701Z,21.92
2022-10-06T15:04:09.723Z,21.74
2022-10-06T15:06:54.603Z,21.50
2022-10-06T15:09:21.363Z,21.50
2022-10-06T15:11:48.022Z,21.37
2022-10-06T15:14:14.508Z,21.61
2022-10-06T15:16:42.530Z,21.57
2022-10-06T15:19:12.020Z,21.49
2022-10-06T15:21:40.203Z,21.35
2022-10-06T15:24:10.907Z,21.61
2022-10-06T15:26:55.846Z,21.57
2022-10-06T15:29:22.457Z,21.29
2022-10-06T15:31:54.743Z,21.61
2022-10-06T15:34:25.719Z,21.30
2022-10-06T15:36:53.452Z,21.23
2022-10-06T15:39:21.959Z,21.28
2022-10-06T15:41:48.749Z,21.10
2022-10-06T15:44:16.047Z,21.22
2022-10-06T15:46:51.060Z,21.13
2022-10-06T15:49:25.523Z,21.08
2022-10-06T15:51:56.875Z,20.94
2022-10-06T15:54:25.974Z,21.00
2022-10-06T15:57:00.322Z,21.27
2022-10-06T15:59:28.797Z,21.14
2022-10-06T16:01:57.832Z,21.04
2022-10-06T16:04:56.397Z,20.91
2022-10-06T16:07:23.050Z,21.00
2022-10-06T16:09:51.022Z,21.19
2022-10-06T16:12:22.754Z,20.85
2022-10-06T16:14:49.417Z,20.80
2022-10-06T16:17:16.709Z,20.76
2022-10-06T16:19:43.631Z,20.66
2022-10-06T16:22:12.579Z,20.68
2022-10-06T16:24:39.131Z,20.51
2022-10-06T16:27:06.302Z,20.38
2022-10-06T16:29:32.959Z,20.41
2022-10-06T16:31:59.479Z,20.34
2022-10-06T16:34:26.572Z,20.25
2022-10-06T16:36:53.098Z,20.24
2022-10-06T16:39:23.423Z,20.19
2022-10-06T16:41:51.047Z,20.15
2022-10-06T16:44:18.191Z,20.13
2022-10-06T16:46:45.248Z,20.06
2022-10-06T16:49:12.129Z,20.16
2022-10-06T16:51:43.495Z,19.90
2022-10-06T16:54:12.468Z,19.80
2022-10-06T16:56:39.405Z,19.72
2022-10-06T16:59:11.596Z,19.76
2022-10-06T17:01:38.627Z,19.71
2022-10-06T17:04:17.002Z,19.58
2022-10-06T17:06:49.003Z,19.53
2022-10-06T17:09:20.581Z,19.50
2022-10-06T17:11:58.629Z,19.43
2022-10-06T17:14:26.266Z,19.43
2022-10-06T17:16:53.965Z,19.40
2022-10-06T17:19:22.647Z,19.26
2022-10-06T17:21:54.078Z,19.24
2022-10-06T17:24:25.672Z,19.22
2022-10-06T17:26:52.863Z,19.23
2022-10-06T17:29:21.830Z,19.03
2022-10-06T17:31:50.853Z,19.00
2022-10-06T17:34:21.852Z,19.02
2022-10-06T17:36:51.853Z,18.94
2022-10-06T17:39:21.434Z,18.95
2022-10-06T17:41:50.277Z,18.79
2022-10-06T17:44:22.708Z,18.97
2022-10-06T17:46:51.957Z,18.94
2022-10-06T17:49:20.763Z,18.88
2022-10-06T17:51:48.209Z,18.74
2022-10-06T17:54:18.124Z,18.66
2022-10-06T17:56:46.103Z,18.73
2022-10-06T17:59:15.663Z,18.69
2022-10-06T18:01:44.427Z,18.73
2022-10-06T18:04:15.576Z,18.57
2022-10-06T18:06:43.629Z,18.51
2022-10-06T18:09:10.528Z,18.53
2022-10-06T18:11:41.875Z,18.43
2022-10-06T18:14:16.797Z,18.42
2022-10-06T18:17:00.852Z,18.35
2022-10-06T18:19:32.935Z,18.31
2022-10-06T18:22:04.949Z,18.26
2022-10-06T18:24:32.326Z,18.36
2022-10-06T18:27:00.620Z,18.31
2022-10-06T18:29:37.885Z,18.33
2022-10-06T18:32:53.416Z,18.26
2022-10-06T18:37:39.709Z,18.14
2022-10-06T18:40:08.922Z,18.06
2022-10-06T18:42:35.938Z,18.08
2022-10-06T18:45:21.717Z,18.15
2022-10-06T18:48:06.833Z,18.01
2022-10-06T18:50:34.394Z,18.00
2022-10-06T18:53:01.662Z,18.12
2022-10-06T18:55:29.810Z,18.10
2022-10-06T18:57:56.570Z,18.08
2022-10-06T19:00:25.886Z,18.05
2022-10-06T19:02:52.410Z,18.06
2022-10-06T19:05:19.257Z,17.88
2022-10-06T19:07:46.182Z,17.91
2022-10-06T19:10:12.840Z,17.95
2022-10-06T19:12:39.317Z,17.91
2022-10-06T19:15:06.160Z,18.03
2022-10-06T19:17:32.649Z,18.02
2022-10-06T19:19:59.142Z,17.95
2022-10-06T19:22:25.655Z,17.86
2022-10-06T19:24:52.458Z,17.90
2022-10-06T19:27:24.370Z,17.80
2022-10-06T19:29:54.522Z,17.80
2022-10-06T19:32:26.796Z,17.72
2022-10-06T19:34:57.885Z,17.75
2022-10-06T19:37:27.033Z,17.77
2022-10-06T19:39:53.751Z,17.72
2022-10-06T19:42:39.088Z,17.66
2022-10-06T19:45:06.839Z,17.50
2022-10-06T19:47:33.776Z,17.49
2022-10-06T19:50:04.820Z,17.31
2022-10-06T19:52:34.350Z,17.19
2022-10-06T19:55:00.973Z,17.13
2022-10-06T19:57:29.250Z,17.34
2022-10-06T19:59:55.890Z,17.17
2022-10-06T20:02:22.862Z,17.24
2022-10-06T20:04:50.464Z,17.26
2022-10-06T20:07:17.286Z,17.02
2022-10-06T20:09:44.185Z,17.04
2022-10-06T20:12:10.738Z,16.89
2022-10-06T20:14:37.421Z,16.90
2022-10-06T20:17:04.053Z,16.90
2022-10-06T20:19:31.054Z,16.98
2022-10-06T20:21:58.008Z,17.06
2022-10-06T20:24:24.859Z,16.86
2022-10-06T20:26:52.842Z,16.87
2022-10-06T20:29:23.097Z,16.72
2022-10-06T20:31:52.436Z,16.65
2022-10-06T20:34:22.071Z,16.63
2022-10-06T20:36:54.572Z,16.83
2022-10-06T20:39:41.690Z,16.76
2022-10-06T20:42:14.559Z,16.53
2022-10-06T20:44:42.552Z,16.61
2022-10-06T20:47:10.565Z,16.51
2022-10-06T20:49:37.617Z,16.43
2022-10-06T20:52:05.128Z,16.54
2022-10-06T20:54:35.126Z,16.63
2022-10-06T20:57:04.681Z,16.61
2022-10-06T20:59:32.278Z,16.45
2022-10-06T21:02:02.067Z,16.31
2022-10-06T21:04:29.319Z,16.48
2022-10-06T21:06:56.289Z,16.54
2022-10-06T21:09:24.555Z,16.29
2022-10-06T21:11:51.305Z,16.37
2022-10-06T21:14:18.446Z,16.48
2022-10-06T21:16:47.377Z,16.51
2022-10-06T21:19:19.422Z,16.36
2022-10-06T21:21:51.951Z,16.10
2022-10-06T21:24:19.185Z,16.08
2022-10-06T21:26:46.211Z,16.13
2022-10-06T21:29:15.684Z,16.36
2022-10-06T21:31:43.763Z,16.39
2022-10-06T21:34:10.688Z,16.29
2022-10-06T21:36:37.807Z,16.27
2022-10-06T21:39:05.932Z,16.04
2022-10-06T21:41:40.309Z,16.14
2022-10-06T21:44:10.686Z,16.15
2022-10-06T21:46:41.813Z,16.21
2022-10-06T21:49:13.747Z,16.18
2022-10-06T21:51:42.470Z,16.09
2022-10-06T21:54:11.986Z,16.31
2022-10-06T21:56:39.285Z,16.34
2022-10-06T21:59:06.603Z,16.16
2022-10-06T22:01:38.613Z,16.02
2022-10-06T22:04:06.310Z,15.84
2022-10-06T22:06:35.297Z,15.99
2022-10-06T22:09:02.652Z,16.02
2022-10-06T22:11:31.744Z,16.07
2022-10-06T22:14:01.484Z,15.93
2022-10-06T22:16:30.441Z,15.95
2022-10-06T22:18:57.724Z,16.02
2022-10-06T22:21:30.694Z,15.90
2022-10-06T22:24:07.960Z,16.04
2022-10-06T22:26:37.669Z,16.04
2022-10-06T22:29:06.857Z,16.05
2022-10-06T22:31:34.326Z,15.78
2022-10-06T22:34:04.890Z,15.74
2022-10-06T22:36:32.014Z,15.66
2022-10-06T22:38:59.322Z,15.79
2022-10-06T22:41:26.729Z,15.68
2022-10-06T22:43:57.796Z,15.72
2022-10-06T22:46:25.463Z,15.70
2022-10-06T22:48:52.684Z,15.79
2022-10-06T22:51:19.635Z,15.75
2022-10-06T22:53:46.462Z,15.83
2022-10-06T22:56:13.231Z,15.58
2022-10-06T22:58:39.830Z,15.54
2022-10-06T23:01:15.108Z,15.71
2022-10-06T23:03:42.087Z,15.80
2022-10-06T23:06:11.975Z,15.90
2022-10-06T23:08:38.927Z,15.73
2022-10-06T23:11:11.998Z,15.81
2022-10-06T23:13:38.989Z,15.59
2022-10-06T23:16:08.789Z,15.66
2022-10-06T23:23:41.407Z,15.43
2022-10-06T23:26:10.712Z,15.21
2022-10-06T23:28:37.843Z,15.32
2022-10-06T23:31:06.163Z,15.18
2022-10-06T23:33:33.545Z,15.47
2022-10-06T23:36:12.110Z,15.73
2022-10-06T23:38:39.026Z,15.53
2022-10-06T23:41:06.834Z,15.53
2022-10-06T23:43:34.117Z,15.36
2022-10-06T23:46:01.692Z,15.20
2022-10-06T23:48:28.736Z,15.17
2022-10-06T23:51:00.963Z,15.23
2022-10-06T23:53:28.728Z,15.15
2022-10-06T23:55:55.341Z,15.14
2022-10-06T23:58:22.783Z,15.21
